createdAt,value
2018-12-02T00:00:00.935Z,85.54
2018-12-02T00:02:31.032Z,85.27
2018-12-02T00:05:01.017Z,85.53
2018-12-02T00:07:31.179Z,84.92
2018-12-02T00:10:01.647Z,85.12
2018-12-02T00:12:31.681Z,85.34
2018-12-02T00:15:01.687Z,85.03
2018-12-02T00:17:31.725Z,85.53
2018-12-02T00:20:01.861Z,85.51
2018-12-02T00:22:31.896Z,85.45
2018-12-02T00:25:02.317Z,85.30
2018-12-02T00:27:32.414Z,85.81
2018-12-02T00:30:02.505Z,85.56
2018-12-02T00:32:32.529Z,86.01
2018-12-02T00:35:02.474Z,85.36
2018-12-02T00:37:32.397Z,86.00
2018-12-02T00:40:02.496Z,85.84
2018-12-02T00:42:32.534Z,85.72
2018-12-02T00:45:02.616Z,86.15
2018-12-02T00:47:32.571Z,85.82
2018-12-02T00:50:02.797Z,86.00
2018-12-02T00:52:32.758Z,85.92
2018-12-02T00:55:02.946Z,86.76
2018-12-02T00:57:33.162Z,87.12
2018-12-02T01:00:03.237Z,86.94
2018-12-02T01:02:33.496Z,87.42
2018-12-02T01:05:03.582Z,87.39
2018-12-02T01:07:33.636Z,87.16
2018-12-02T01:10:03.748Z,86.94
2018-12-02T01:12:33.829Z,87.26
2018-12-02T01:15:03.985Z,87.10
2018-12-02T01:17:34.052Z,87.56
2018-12-02T01:20:04.218Z,86.93
2018-12-02T01:22:34.137Z,86.68
2018-12-02T01:25:04.261Z,86.95
2018-12-02T01:27:34.339Z,86.73
2018-12-02T01:30:05.161Z,86.96
2018-12-02T01:32:35.276Z,86.73
2018-12-02T01:35:05.289Z,86.64
2018-12-02T01:37:35.359Z,86.94
2018-12-02T01:40:07.048Z,86.49
2018-12-02T01:42:37.064Z,86.72
2018-12-02T01:45:13.563Z,86.77
2018-12-02T01:47:43.671Z,87.02
2018-12-02T01:50:16.600Z,86.99
2018-12-02T01:52:47.884Z,87.02
2018-12-02T01:55:18.389Z,86.61
2018-12-02T01:57:48.472Z,86.36
2018-12-02T02:00:26.128Z,86.60
2018-12-02T02:02:56.908Z,86.73
2018-12-02T02:05:27.542Z,86.63
2018-12-02T02:07:57.637Z,86.50
2018-12-02T02:10:29.719Z,86.63
2018-12-02T02:12:59.900Z,86.79
2018-12-02T02:15:29.806Z,86.82
2018-12-02T02:17:59.930Z,86.64
2018-12-02T02:20:30.023Z,87.00
2018-12-02T02:23:00.366Z,87.38
2018-12-02T02:25:30.484Z,87.09
2018-12-02T02:28:00.822Z,87.28
2018-12-02T02:30:31.511Z,87.40
2018-12-02T02:33:01.680Z,87.60
2018-12-02T02:35:31.690Z,87.37
2018-12-02T02:38:01.806Z,86.89
2018-12-02T02:40:32.146Z,87.41
2018-12-02T02:43:02.241Z,87.53
2018-12-02T02:45:32.376Z,87.75
2018-12-02T02:48:02.552Z,87.42
2018-12-02T02:50:32.656Z,87.59
2018-12-02T02:53:03.191Z,87.42
2018-12-02T02:55:33.255Z,87.23
2018-12-02T02:58:03.298Z,87.22
2018-12-02T03:00:33.336Z,88.47
2018-12-02T03:03:03.406Z,87.65
2018-12-02T03:05:33.397Z,87.59
2018-12-02T03:08:03.459Z,87.31
2018-12-02T03:10:33.387Z,87.58
2018-12-02T03:13:03.502Z,87.64
2018-12-02T03:15:33.584Z,87.49
2018-12-02T03:18:03.628Z,87.95
2018-12-02T03:20:34.506Z,87.65
2018-12-02T03:23:20.555Z,87.43
2018-12-02T03:25:50.624Z,88.31
2018-12-02T03:28:20.532Z,88.20
2018-12-02T03:30:50.546Z,87.83
2018-12-02T03:33:20.655Z,88.20
2018-12-02T03:35:50.750Z,88.49
2018-12-02T03:38:20.803Z,89.13
2018-12-02T03:40:51.000Z,88.74
2018-12-02T03:43:20.889Z,89.12
2018-12-02T03:45:50.895Z,89.28
2018-12-02T03:48:20.983Z,89.08
2018-12-02T03:50:50.875Z,89.13
2018-12-02T03:53:20.998Z,89.70
2018-12-02T03:55:51.057Z,89.59
2018-12-02T03:58:21.010Z,89.92
2018-12-02T04:00:50.978Z,90.50
2018-12-02T04:03:21.050Z,90.47
2018-12-02T04:06:42.514Z,91.21
2018-12-02T04:09:22.489Z,91.03
2018-12-02T04:11:52.567Z,91.03
2018-12-02T04:14:22.556Z,92.06
2018-12-02T04:16:52.763Z,91.34
2018-12-02T04:19:22.844Z,91.66
2018-12-02T04:21:52.655Z,91.92
2018-12-02T04:24:22.710Z,91.46
2018-12-02T04:26:52.641Z,91.20
2018-12-02T04:29:22.711Z,92.20
2018-12-02T04:31:52.616Z,91.80
2018-12-02T04:34:22.816Z,92.17
2018-12-02T04:36:52.765Z,92.06
2018-12-02T04:39:22.619Z,91.97
2018-12-02T04:41:52.629Z,92.47
2018-12-02T04:44:22.730Z,92.68
2018-12-02T04:46:52.578Z,93.27
2018-12-02T04:49:22.530Z,92.70
2018-12-02T04:51:52.439Z,93.02
2018-12-02T04:54:22.454Z,92.88
2018-12-02T04:56:52.304Z,92.89
2018-12-02T04:59:22.395Z,93.69
2018-12-02T05:01:52.252Z,93.92
2018-12-02T05:04:22.267Z,93.45
2018-12-02T05:06:52.292Z,93.57
2018-12-02T05:09:22.327Z,93.17
2018-12-02T05:11:52.185Z,93.00
2018-12-02T05:14:22.403Z,92.78
2018-12-02T05:16:52.379Z,93.08
2018-12-02T05:19:22.456Z,92.85
2018-12-02T05:21:52.493Z,92.72
2018-12-02T05:24:22.651Z,92.83
2018-12-02T05:26:52.617Z,93.51
2018-12-02T05:29:22.603Z,93.87
2018-12-02T05:31:52.627Z,93.79
2018-12-02T05:34:22.642Z,93.56
2018-12-02T05:36:52.561Z,92.87
2018-12-02T05:39:22.539Z,93.22
2018-12-02T05:41:57.809Z,93.49
2018-12-02T05:44:28.034Z,93.36
2018-12-02T05:46:58.028Z,93.39
2018-12-02T05:49:28.269Z,93.66
2018-12-02T05:51:58.165Z,94.24
2018-12-02T05:54:28.264Z,93.50
2018-12-02T05:56:58.102Z,93.81
2018-12-02T05:59:28.196Z,93.95
2018-12-02T06:01:58.255Z,93.95
2018-12-02T06:04:28.282Z,93.75
2018-12-02T06:06:58.282Z,94.00
2018-12-02T06:09:28.143Z,94.73
2018-12-02T06:11:58.206Z,94.18
2018-12-02T06:14:28.276Z,94.08
2018-12-02T06:16:58.220Z,94.49
2018-12-02T06:19:28.214Z,94.07
2018-12-02T06:21:58.275Z,94.06
2018-12-02T06:24:28.292Z,94.31
2018-12-02T06:40:42.073Z,94.14
2018-12-02T06:43:13.005Z,93.95
2018-12-02T06:45:43.009Z,93.68
2018-12-02T06:48:13.127Z,94.72
2018-12-02T06:50:43.141Z,94.16
2018-12-02T06:53:13.059Z,94.23
2018-12-02T06:55:57.719Z,94.55
2018-12-02T06:59:21.332Z,95.06
2018-12-02T07:02:02.579Z,94.55
2018-12-02T07:04:35.999Z,94.22
2018-12-02T07:07:06.603Z,94.11
2018-12-02T07:09:36.638Z,94.60
2018-12-02T07:12:06.791Z,94.70
2018-12-02T07:14:36.874Z,95.07
2018-12-02T07:17:06.803Z,94.33
2018-12-02T07:19:45.151Z,95.25
2018-12-02T07:22:21.537Z,95.85
2018-12-02T07:24:55.073Z,95.56
2018-12-02T07:27:25.001Z,95.47
2018-12-02T07:29:55.083Z,95.31
2018-12-02T07:32:25.220Z,95.21
2018-12-02T07:34:55.467Z,95.43
2018-12-02T07:37:25.782Z,94.65
2018-12-02T07:40:43.177Z,95.07
2018-12-02T07:43:14.171Z,95.45
2018-12-02T07:45:44.009Z,94.65
2018-12-02T07:48:13.881Z,95.13
2018-12-02T07:50:43.873Z,96.18
2018-12-02T07:53:13.733Z,95.67
2018-12-02T07:55:43.786Z,95.41
2018-12-02T07:58:16.088Z,95.30
2018-12-02T08:00:46.497Z,96.00
2018-12-02T08:03:16.406Z,95.94
2018-12-02T08:05:46.654Z,95.73
2018-12-02T08:08:16.798Z,95.95
2018-12-02T08:10:46.722Z,96.04
2018-12-02T08:13:16.655Z,96.12
2018-12-02T08:15:47.968Z,95.73
2018-12-02T08:18:18.069Z,95.20
2018-12-02T08:20:48.254Z,96.26
2018-12-02T08:23:20.131Z,96.73
2018-12-02T08:25:50.285Z,96.56
2018-12-02T08:28:20.725Z,96.68
2018-12-02T08:30:52.154Z,96.21
2018-12-02T08:33:22.582Z,95.87
2018-12-02T08:35:52.861Z,95.96
2018-12-02T08:38:23.079Z,96.62
2018-12-02T08:40:53.486Z,96.24
2018-12-02T08:43:23.604Z,96.35
2018-12-02T08:45:55.208Z,96.36
2018-12-02T08:48:25.635Z,95.87
2018-12-02T08:51:11.474Z,97.26
2018-12-02T08:53:41.652Z,96.73
2018-12-02T08:56:11.610Z,97.38
2018-12-02T08:58:41.830Z,97.31
2018-12-02T09:01:15.233Z,97.19
2018-12-02T09:03:45.679Z,96.85
2018-12-02T09:06:15.657Z,97.33
2018-12-02T09:08:45.910Z,97.47
2018-12-02T09:11:16.020Z,97.30
2018-12-02T09:13:47.319Z,97.38
2018-12-02T09:16:17.911Z,97.72
2018-12-02T09:18:47.961Z,97.36
2018-12-02T09:21:18.732Z,97.09
2018-12-02T09:23:48.882Z,97.37
2018-12-02T09:26:23.590Z,97.44
2018-12-02T09:28:54.041Z,98.15
2018-12-02T09:31:24.196Z,98.13
2018-12-02T09:33:54.191Z,97.96
2018-12-02T09:36:24.174Z,97.38
2018-12-02T09:38:54.720Z,97.56
2018-12-02T09:41:27.000Z,97.73
2018-12-02T09:43:57.865Z,97.86
2018-12-02T09:46:33.926Z,98.08
2018-12-02T09:52:13.972Z,98.04
2018-12-02T09:54:44.010Z,98.00
2018-12-02T10:00:20.701Z,98.31
2018-12-02T10:02:50.666Z,98.10
2018-12-02T10:05:22.662Z,97.85
2018-12-02T10:07:52.622Z,97.51
2018-12-02T10:10:23.404Z,97.85
2018-12-02T10:13:00.352Z,97.33
2018-12-02T10:15:51.016Z,97.80
2018-12-02T10:18:23.909Z,98.22
2018-12-02T11:20:00.597Z,99.84
2018-12-02T11:22:32.084Z,100.00
2018-12-02T11:25:02.067Z,99.75
2018-12-02T11:34:02.608Z,100.00
2018-12-02T11:42:43.353Z,100.00
2018-12-02T11:45:15.254Z,100.00
2018-12-02T11:47:59.091Z,100.00
2018-12-02T11:50:35.391Z,100.00
2018-12-02T11:53:08.028Z,100.00
2018-12-02T11:55:44.591Z,100.00
2018-12-02T12:01:39.997Z,100.00
2018-12-02T12:04:14.284Z,100.00
2018-12-02T12:06:44.318Z,100.00
2018-12-02T12:15:34.015Z,100.00
2018-12-02T12:18:18.595Z,100.00
2018-12-02T12:23:59.234Z,100.00
2018-12-02T12:29:30.611Z,100.00
2018-12-02T12:32:00.600Z,100.00
2018-12-02T12:34:46.281Z,100.00
2018-12-02T12:37:16.516Z,100.00
2018-12-02T12:39:46.647Z,100.00
2018-12-02T12:42:16.677Z,100.00
2018-12-02T12:44:46.620Z,100.00
2018-12-02T12:47:16.886Z,100.00
2018-12-02T12:49:46.993Z,100.00
2018-12-02T12:55:26.605Z,100.00
2018-12-02T12:57:56.657Z,100.00
2018-12-02T13:00:26.981Z,100.00
2018-12-02T13:02:56.993Z,100.00
2018-12-02T13:05:27.590Z,100.00
2018-12-02T13:07:58.143Z,100.00
2018-12-02T13:10:28.905Z,100.00
2018-12-02T13:13:01.437Z,100.00
2018-12-02T13:15:55.505Z,100.00
2018-12-02T13:21:35.685Z,100.00
2018-12-02T13:24:05.811Z,100.00
2018-12-02T13:26:36.169Z,100.00
2018-12-02T13:32:06.432Z,100.00
2018-12-02T13:34:36.885Z,100.00
2018-12-02T13:37:07.333Z,100.00
2018-12-02T13:39:38.096Z,100.00
2018-12-02T13:42:13.474Z,100.00
2018-12-02T13:44:43.593Z,100.00
2018-12-02T13:47:13.937Z,100.00
2018-12-02T13:49:44.353Z,100.00
2018-12-02T13:52:14.594Z,100.00
2018-12-02T13:54:44.742Z,100.00
2018-12-02T13:57:15.037Z,100.00
2018-12-02T14:02:59.103Z,100.00
2018-12-02T14:05:48.028Z,100.00
2018-12-02T14:11:34.795Z,100.00
2018-12-02T14:14:06.200Z,100.00
2018-12-02T14:16:57.249Z,100.00
2018-12-02T14:23:06.033Z,100.00
2018-12-02T14:25:36.398Z,100.00
2018-12-02T14:28:07.914Z,100.00
2018-12-02T14:33:40.412Z,100.00
2018-12-02T14:36:10.811Z,100.00
2018-12-02T14:38:42.444Z,100.00
2018-12-02T14:41:23.270Z,100.00
2018-12-02T14:43:53.658Z,100.00
2018-12-02T14:46:24.347Z,100.00
2018-12-02T14:52:22.045Z,100.00
2018-12-02T14:54:59.022Z,100.00
2018-12-02T14:57:32.660Z,100.00
2018-12-02T15:00:04.506Z,100.00
2018-12-02T15:02:34.563Z,100.00
2018-12-02T15:05:32.568Z,100.00
2018-12-02T15:08:27.605Z,100.00
2018-12-02T15:10:57.563Z,100.00
2018-12-02T15:16:38.167Z,100.00
2018-12-02T15:19:18.498Z,100.00
2018-12-02T15:22:00.970Z,100.00
2018-12-02T15:24:31.465Z,100.00
2018-12-02T15:27:01.486Z,100.00
2018-12-02T15:29:32.143Z,100.00
2018-12-02T15:35:33.485Z,100.00
2018-12-02T15:38:15.760Z,100.00
2018-12-02T15:40:45.890Z,100.00
2018-12-02T15:43:26.160Z,100.00
2018-12-02T15:45:56.155Z,100.00
2018-12-02T15:48:26.162Z,100.00
2018-12-02T15:51:19.666Z,100.00
2018-12-02T15:53:49.650Z,100.00
2018-12-02T15:56:37.786Z,100.00
2018-12-02T15:59:09.191Z,100.00
2018-12-02T16:04:28.754Z,100.00
2018-12-02T16:07:08.606Z,100.00
2018-12-02T16:09:48.855Z,100.00
2018-12-02T16:12:18.750Z,100.00
2018-12-02T16:14:57.475Z,100.00
2018-12-02T16:17:27.777Z,100.00
2018-12-02T16:20:14.338Z,100.00
2018-12-02T16:22:44.576Z,100.00
2018-12-02T16:25:14.755Z,100.00
2018-12-02T16:27:45.011Z,100.00
2018-12-02T16:33:35.130Z,100.00
2018-12-02T16:36:24.160Z,100.00
2018-12-02T16:38:54.348Z,100.00
2018-12-02T16:41:25.228Z,100.00
2018-12-02T16:43:55.780Z,100.00
2018-12-02T16:46:31.003Z,100.00
2018-12-02T16:49:02.618Z,100.00
2018-12-02T16:51:32.806Z,100.00
2018-12-02T16:57:28.393Z,100.00
2018-12-02T17:00:11.969Z,100.00
2018-12-02T17:02:42.161Z,100.00
2018-12-02T17:05:29.979Z,100.00
2018-12-02T17:08:00.576Z,100.00
2018-12-02T17:10:42.112Z,100.00
2018-12-02T17:16:26.938Z,100.00
2018-12-02T17:27:57.104Z,100.00
2018-12-02T17:30:40.963Z,100.00
2018-12-02T17:36:32.166Z,100.00
2018-12-02T17:39:16.857Z,100.00
2018-12-02T17:41:51.251Z,100.00
2018-12-02T17:44:21.407Z,100.00
2018-12-02T17:46:51.508Z,100.00
2018-12-02T17:49:21.546Z,100.00
2018-12-02T17:51:51.654Z,100.00
2018-12-02T17:54:22.996Z,99.64
2018-12-02T17:56:54.655Z,99.26
2018-12-02T17:59:28.799Z,99.72
2018-12-02T18:02:04.501Z,99.81
2018-12-02T18:04:34.591Z,99.79
2018-12-02T18:07:04.588Z,99.68
2018-12-02T18:09:36.683Z,99.55
2018-12-02T18:12:10.842Z,100.00
2018-12-02T18:14:41.019Z,99.87
2018-12-02T18:17:10.996Z,99.40
2018-12-02T18:23:10.372Z,99.93
2018-12-02T18:25:40.444Z,100.00
2018-12-02T18:28:17.103Z,99.95
2018-12-02T18:30:52.021Z,100.00
2018-12-02T18:33:22.721Z,99.86
2018-12-02T18:36:06.309Z,99.71
2018-12-02T18:38:38.706Z,99.58
2018-12-02T18:47:40.087Z,99.93
2018-12-02T18:55:50.125Z,99.61
2018-12-02T18:58:20.160Z,99.06
2018-12-02T19:00:50.246Z,99.09
2018-12-02T19:03:22.646Z,99.02
2018-12-02T19:05:53.808Z,99.24
2018-12-02T19:11:33.459Z,98.74
2018-12-02T19:14:04.945Z,98.84
2018-12-02T19:16:39.572Z,98.68
2018-12-02T19:19:12.831Z,98.82
2018-12-02T19:22:01.663Z,98.40
2018-12-02T19:24:32.333Z,98.69
2018-12-02T19:27:06.488Z,98.59
2018-12-02T19:32:45.808Z,97.94
2018-12-02T19:35:23.345Z,98.04
2018-12-02T19:37:55.967Z,97.88
2018-12-02T19:40:40.141Z,97.53
2018-12-02T19:43:10.304Z,97.91
2018-12-02T19:48:41.056Z,97.10
2018-12-02T19:51:11.238Z,97.34
2018-12-02T19:53:44.935Z,96.69
2018-12-02T19:56:16.808Z,97.07
2018-12-02T19:58:46.984Z,97.03
2018-12-02T20:01:17.347Z,97.28
2018-12-02T20:15:53.080Z,97.79
2018-12-02T20:18:23.062Z,98.06
2018-12-02T20:20:55.449Z,97.47
2018-12-02T20:23:30.990Z,97.65
2018-12-02T20:26:03.551Z,97.81
2018-12-02T20:28:52.925Z,97.54
2018-12-02T20:31:25.639Z,97.43
2018-12-02T20:36:44.115Z,97.68
2018-12-02T20:39:33.349Z,97.01
2018-12-02T20:42:03.613Z,97.67
2018-12-02T20:44:33.682Z,97.11
2018-12-02T20:47:04.951Z,97.48
2018-12-02T20:49:35.221Z,97.36
2018-12-02T20:52:06.409Z,98.21
2018-12-02T20:54:36.520Z,98.10
2018-12-02T20:57:06.883Z,98.44
2018-12-02T20:59:37.596Z,98.74
2018-12-02T21:02:07.648Z,98.59
2018-12-02T21:04:37.949Z,98.46
2018-12-02T21:07:08.098Z,98.26
2018-12-02T21:09:38.153Z,98.27
2018-12-02T21:12:12.232Z,98.46
2018-12-02T21:14:42.091Z,98.70
2018-12-02T21:17:12.147Z,98.32
2018-12-02T21:19:42.089Z,98.26
2018-12-02T21:22:20.887Z,98.49
2018-12-02T21:24:56.294Z,98.59
2018-12-02T21:27:26.174Z,98.17
2018-12-02T21:33:08.545Z,98.48
2018-12-02T21:35:39.226Z,98.06
2018-12-02T21:42:30.208Z,98.42
2018-12-02T21:45:00.196Z,98.70
2018-12-02T21:47:30.104Z,97.98
2018-12-02T21:50:00.037Z,98.42
2018-12-02T21:52:30.124Z,98.08
2018-12-02T21:55:00.234Z,98.08
2018-12-02T21:57:30.409Z,98.47
2018-12-02T22:00:00.301Z,98.38
2018-12-02T22:02:31.434Z,98.40
2018-12-02T22:05:01.459Z,98.16
2018-12-02T22:07:31.434Z,98.23
2018-12-02T22:10:02.636Z,98.36
2018-12-02T22:12:32.667Z,98.36
2018-12-02T22:15:02.560Z,98.45
2018-12-02T22:17:32.518Z,98.66
2018-12-02T22:20:02.570Z,98.60
2018-12-02T22:22:32.407Z,98.59
2018-12-02T22:25:03.255Z,98.99
2018-12-02T22:27:33.269Z,98.98
2018-12-02T22:30:03.342Z,99.23
2018-12-02T22:32:34.271Z,98.72
2018-12-02T22:35:04.482Z,99.40
2018-12-02T22:37:34.323Z,99.73
2018-12-02T22:40:18.967Z,99.32
2018-12-02T22:43:11.610Z,99.48
2018-12-02T22:48:49.602Z,99.95
2018-12-02T22:51:19.942Z,99.24
2018-12-02T22:53:51.225Z,99.98
2018-12-02T22:56:23.892Z,99.89
2018-12-02T22:58:54.070Z,99.89
2018-12-02T23:01:30.692Z,99.94
2018-12-02T23:04:02.020Z,99.61
2018-12-02T23:06:40.709Z,99.49
2018-12-02T23:09:10.826Z,100.00
2018-12-02T23:11:41.463Z,100.00
2018-12-02T23:14:11.543Z,100.00
2018-12-02T23:16:45.829Z,100.00
2018-12-02T23:19:15.848Z,99.85
2018-12-02T23:21:45.755Z,100.00
2018-12-02T23:24:15.758Z,100.00
2018-12-02T23:26:45.817Z,100.00
2018-12-02T23:29:15.948Z,100.00
2018-12-02T23:31:45.942Z,100.00
2018-12-02T23:34:15.950Z,100.00
2018-12-02T23:36:52.444Z,100.00
2018-12-02T23:39:23.323Z,100.00
2018-12-02T23:41:53.535Z,99.97
2018-12-02T23:44:23.389Z,99.83
2018-12-02T23:46:53.335Z,99.91
2018-12-02T23:49:23.339Z,99.87
2018-12-02T23:51:53.268Z,100.00
2018-12-02T23:54:23.166Z,99.85
2018-12-02T23:56:53.215Z,100.00
2018-12-02T23:59:23.131Z,100.00
